createdAt,value
2023-01-06T00:00:01.736Z,1
2023-01-06T00:01:59.919Z,1
2023-01-06T00:04:07.183Z,1
2023-01-06T00:06:00.150Z,1
2023-01-06T00:08:08.911Z,1
2023-01-06T00:09:59.778Z,0
2023-01-06T00:12:04.512Z,0
2023-01-06T00:13:59.878Z,0
2023-01-06T00:16:01.351Z,1
2023-01-06T00:17:59.930Z,1
2023-01-06T00:20:03.422Z,1
2023-01-06T00:22:00.131Z,1
2023-01-06T00:24:00.182Z,1
2023-01-06T00:26:01.521Z,1
2023-01-06T00:28:06.806Z,1
2023-01-06T00:29:59.809Z,1
2023-01-06T00:32:07.021Z,1
2023-01-06T00:34:06.690Z,1
2023-01-06T00:36:00.082Z,1
2023-01-06T00:38:08.052Z,1
2023-01-06T00:40:00.197Z,1
2023-01-06T00:42:04.868Z,1
2023-01-06T00:43:59.921Z,1
2023-01-06T00:46:07.088Z,1
2023-01-06T00:48:05.948Z,1
2023-01-06T00:50:06.176Z,1
2023-01-06T00:52:00.014Z,1
2023-01-06T00:54:01.645Z,1
2023-01-06T00:55:59.881Z,1
2023-01-06T00:58:02.645Z,1
2023-01-06T01:02:06.126Z,1
2023-01-06T01:04:00.539Z,1
2023-01-06T01:06:01.766Z,1
2023-01-06T01:08:06.782Z,1
2023-01-06T01:10:00.060Z,1
2023-01-06T01:12:08.126Z,1
2023-01-06T01:13:59.845Z,1
2023-01-06T01:16:13.155Z,1
2023-01-06T01:17:59.929Z,1
2023-01-06T01:19:59.800Z,1
2023-01-06T01:22:01.356Z,1
2023-01-06T01:23:59.945Z,1
2023-01-06T01:26:01.684Z,1
2023-01-06T01:27:59.774Z,1
2023-01-06T01:30:00.197Z,1
2023-01-06T01:32:00.104Z,1
2023-01-06T01:34:09.960Z,1
2023-01-06T01:35:59.909Z,1
2023-01-06T01:38:03.836Z,1
2023-01-06T01:40:00.250Z,1
2023-01-06T01:41:59.846Z,1
2023-01-06T01:44:00.276Z,1
2023-01-06T01:46:06.365Z,1
2023-01-06T01:47:59.952Z,1
2023-01-06T01:50:03.240Z,1
2023-01-06T01:51:59.796Z,1
2023-01-06T01:54:00.032Z,1
2023-01-06T01:58:13.334Z,1
2023-01-06T02:00:00.155Z,1
2023-01-06T02:02:04.269Z,1
2023-01-06T02:04:13.271Z,1
2023-01-06T02:05:59.969Z,1
2023-01-06T02:08:09.879Z,1
2023-01-06T02:10:06.914Z,1
2023-01-06T02:12:06.778Z,1
2023-01-06T02:14:13.218Z,1
2023-01-06T02:16:09.661Z,1
2023-01-06T02:17:59.416Z,1
2023-01-06T02:20:04.188Z,1
2023-01-06T02:22:00.375Z,1
2023-01-06T02:24:04.677Z,1
2023-01-06T02:25:59.929Z,1
2023-01-06T02:28:04.547Z,1
2023-01-06T02:30:00.302Z,1
2023-01-06T02:32:02.204Z,1
2023-01-06T02:33:59.942Z,1
2023-01-06T02:36:06.845Z,1
2023-01-06T02:37:59.919Z,1
2023-01-06T02:40:01.026Z,1
2023-01-06T02:41:59.977Z,1
2023-01-06T02:44:03.329Z,1
2023-01-06T02:45:59.937Z,1
2023-01-06T02:48:05.043Z,1
2023-01-06T02:49:59.934Z,1
2023-01-06T02:52:11.297Z,1
2023-01-06T02:54:00.281Z,1
2023-01-06T02:56:11.357Z,1
2023-01-06T02:58:00.239Z,1
2023-01-06T03:00:09.696Z,1
2023-01-06T03:02:06.756Z,1
2023-01-06T03:03:59.864Z,1
2023-01-06T03:06:03.253Z,1
2023-01-06T03:08:06.475Z,1
2023-01-06T03:09:59.983Z,1
2023-01-06T03:12:04.620Z,1
2023-01-06T03:14:06.600Z,1
2023-01-06T03:16:06.817Z,1
2023-01-06T03:18:00.191Z,1
2023-01-06T03:20:06.198Z,1
2023-01-06T03:22:00.425Z,1
2023-01-06T03:24:05.026Z,1
2023-01-06T03:26:06.049Z,1
2023-01-06T03:27:59.968Z,1
2023-01-06T03:30:07.761Z,1
2023-01-06T03:31:59.964Z,1
2023-01-06T03:34:12.525Z,1
2023-01-06T03:35:59.882Z,1
2023-01-06T03:37:59.911Z,1
2023-01-06T03:40:00.362Z,1
2023-01-06T03:42:19.105Z,1
2023-01-06T03:44:07.242Z,1
2023-01-06T03:46:00.187Z,1
2023-01-06T03:48:08.563Z,1
2023-01-06T03:50:00.134Z,1
2023-01-06T03:52:04.660Z,1
2023-01-06T03:54:13.083Z,1
2023-01-06T03:56:00.345Z,1
2023-01-06T04:00:07.004Z,1
2023-01-06T04:02:00.220Z,1
2023-01-06T04:04:00.264Z,1
2023-01-06T04:06:09.875Z,1
2023-01-06T04:07:59.854Z,1
2023-01-06T04:10:01.655Z,1
2023-01-06T04:12:06.861Z,1
2023-01-06T04:14:06.962Z,1
2023-01-06T04:16:10.423Z,1
2023-01-06T04:18:00.158Z,1
2023-01-06T04:20:06.927Z,1
2023-01-06T04:21:59.981Z,1
2023-01-06T04:26:00.020Z,1
2023-01-06T04:30:13.420Z,1
2023-01-06T04:31:59.971Z,1
2023-01-06T04:34:03.736Z,1
2023-01-06T04:36:00.238Z,1
2023-01-06T04:38:09.684Z,1
2023-01-06T04:40:00.055Z,1
2023-01-06T04:42:03.201Z,1
2023-01-06T04:43:59.521Z,1
2023-01-06T04:46:00.400Z,1
2023-01-06T04:48:05.895Z,1
2023-01-06T04:49:59.846Z,1
2023-01-06T04:52:11.088Z,1
2023-01-06T04:53:59.535Z,1
2023-01-06T04:56:00.163Z,1
2023-01-06T04:58:01.405Z,1
2023-01-06T04:59:59.940Z,1
2023-01-06T05:02:06.812Z,1
2023-01-06T05:04:00.379Z,1
2023-01-06T05:06:01.613Z,1
2023-01-06T05:09:59.907Z,1
2023-01-06T05:12:03.455Z,1
2023-01-06T05:14:07.116Z,1
2023-01-06T05:16:00.020Z,1
2023-01-06T05:18:01.361Z,1
2023-01-06T05:20:00.402Z,1
2023-01-06T05:22:01.824Z,1
2023-01-06T05:23:59.611Z,1
2023-01-06T05:25:59.948Z,1
2023-01-06T05:28:01.333Z,1
2023-01-06T05:30:06.798Z,1
2023-01-06T05:31:59.895Z,1
2023-01-06T05:33:59.603Z,1
2023-01-06T05:36:05.240Z,1
2023-01-06T05:38:00.325Z,1
2023-01-06T05:39:59.843Z,1
2023-01-06T05:42:06.040Z,1
2023-01-06T05:46:00.240Z,1
2023-01-06T05:48:05.521Z,1
2023-01-06T05:50:06.932Z,1
2023-01-06T05:51:59.979Z,1
2023-01-06T05:54:04.792Z,1
2023-01-06T05:56:00.011Z,1
2023-01-06T05:58:01.043Z,1
2023-01-06T05:59:59.896Z,1
2023-01-06T06:01:59.989Z,1
2023-01-06T06:04:00.137Z,1
2023-01-06T06:08:08.582Z,0
2023-01-06T06:09:59.918Z,0
2023-01-06T06:12:03.545Z,0
2023-01-06T06:13:59.865Z,0
2023-01-06T06:16:16.396Z,0.1
2023-01-06T06:17:59.888Z,0.1
2023-01-06T06:20:07.905Z,0.2
2023-01-06T06:21:59.892Z,0.3
2023-01-06T06:24:00.048Z,0.3
2023-01-06T06:26:16.650Z,0.5
2023-01-06T06:28:09.709Z,0.7
2023-01-06T06:30:07.002Z,1
2023-01-06T06:32:07.724Z,1.4
2023-01-06T06:33:59.947Z,1.9
2023-01-06T06:36:03.430Z,2.7
2023-01-06T06:38:00.224Z,3.7
2023-01-06T06:40:00.368Z,5.2
2023-01-06T06:41:59.961Z,7.8
2023-01-06T06:44:11.383Z,11.6
2023-01-06T06:45:59.612Z,16.4
2023-01-06T06:48:09.970Z,25.8
2023-01-06T06:50:00.089Z,36.6
2023-01-06T06:52:01.058Z,49.4
2023-01-06T06:53:59.967Z,66.7
2023-01-06T06:56:04.762Z,85.6
2023-01-06T06:58:06.840Z,104.6
2023-01-06T07:00:00.149Z,115.6
2023-01-06T07:02:00.000Z,121.5
2023-01-06T07:04:06.676Z,141.2
2023-01-06T07:05:59.556Z,164
2023-01-06T07:08:07.682Z,190.6
2023-01-06T07:10:00.257Z,221.4
2023-01-06T07:12:08.296Z,270.4
2023-01-06T07:13:59.851Z,314.2
2023-01-06T07:16:06.826Z,383.8
2023-01-06T07:18:00.147Z,445.9
2023-01-06T07:20:07.060Z,518
2023-01-06T07:22:00.052Z,572.5
2023-01-06T07:24:08.197Z,665.1
2023-01-06T07:25:59.741Z,735.1
2023-01-06T07:28:04.141Z,772.8
2023-01-06T07:30:00.083Z,854.1
2023-01-06T07:32:10.128Z,943.9
2023-01-06T07:34:06.479Z,1096.6
2023-01-06T07:35:59.571Z,1212
2023-01-06T07:38:01.824Z,1339.4
2023-01-06T07:41:59.949Z,1556.2
2023-01-06T07:44:03.246Z,1556.2
2023-01-06T07:48:00.201Z,1636
2023-01-06T07:50:00.049Z,1719.9
2023-01-06T07:52:04.565Z,1719.9
2023-01-06T07:54:00.283Z,1808
2023-01-06T07:56:06.536Z,1900.7
2023-01-06T07:58:00.037Z,1998.2
2023-01-06T08:02:06.667Z,2208.3
2023-01-06T08:04:00.424Z,2321.6
2023-01-06T08:06:10.170Z,2440.6
2023-01-06T08:08:00.029Z,2565.7
2023-01-06T08:10:00.083Z,2697.3
2023-01-06T08:12:06.329Z,2835.6
2023-01-06T08:14:06.957Z,2981
2023-01-06T08:16:06.862Z,2981
2023-01-06T08:18:09.864Z,3133.8
2023-01-06T08:20:10.344Z,3133.8
2023-01-06T08:22:00.018Z,3294.5
2023-01-06T08:24:12.941Z,3294.5
2023-01-06T08:26:00.182Z,3294.5
2023-01-06T08:28:00.975Z,3641
2023-01-06T08:30:00.004Z,3827.6
2023-01-06T08:32:10.571Z,4447.1
2023-01-06T08:34:00.365Z,18033.7
2023-01-06T08:35:59.558Z,36315.5
2023-01-06T08:38:06.878Z,34544.4
2023-01-06T08:40:00.107Z,36315.5
2023-01-06T08:42:03.223Z,40134.8
2023-01-06T08:43:59.917Z,38177.4
2023-01-06T08:46:03.578Z,40134.8
2023-01-06T08:48:06.784Z,40134.8
2023-01-06T08:50:06.665Z,40134.8
2023-01-06T08:52:00.280Z,38177.4
2023-01-06T08:54:06.497Z,40134.8
2023-01-06T08:55:56.875Z,40134.8
2023-01-06T08:58:07.990Z,42192.6
2023-01-06T08:59:59.970Z,42192.6
2023-01-06T09:02:03.669Z,46630
2023-01-06T09:04:00.074Z,42192.6
2023-01-06T09:06:03.223Z,44355.9
2023-01-06T09:08:09.905Z,46630
2023-01-06T09:10:00.539Z,46630
2023-01-06T09:12:06.775Z,40134.8
2023-01-06T09:14:06.658Z,46630
2023-01-06T09:16:07.100Z,44355.9
2023-01-06T09:20:00.258Z,49020.8
2023-01-06T09:22:09.365Z,51534.2
2023-01-06T09:23:59.994Z,51534.2
2023-01-06T09:26:06.191Z,49020.8
2023-01-06T09:28:00.060Z,51534.2
2023-01-06T09:30:04.068Z,44355.9
2023-01-06T09:32:07.094Z,51534.2
2023-01-06T09:34:06.565Z,51534.2
2023-01-06T09:35:59.886Z,54176.4
2023-01-06T09:38:07.043Z,54176.4
2023-01-06T09:40:00.548Z,56954
2023-01-06T09:41:59.770Z,54176.4
2023-01-06T09:44:04.025Z,49020.8
2023-01-06T09:46:06.519Z,49020.8
2023-01-06T09:48:00.113Z,46630
2023-01-06T09:50:13.067Z,25591.1
2023-01-06T09:54:06.901Z,18958.4
2023-01-06T09:55:59.945Z,14044.7
2023-01-06T09:58:01.117Z,13359.7
2023-01-06T10:02:07.712Z,66171.2
2023-01-06T10:04:10.622Z,62944
2023-01-06T10:06:07.758Z,66171.2
2023-01-06T10:08:07.778Z,28282.5
2023-01-06T10:10:10.679Z,18958.4
2023-01-06T10:12:09.007Z,5166.8
2023-01-06T10:16:07.682Z,3463.4
2023-01-06T10:18:07.300Z,4230.2
2023-01-06T10:20:07.405Z,8955.3
2023-01-06T10:22:07.944Z,3294.5
2023-01-06T10:26:07.771Z,1408.1
2023-01-06T10:28:11.652Z,1152.9
2023-01-06T10:30:14.911Z,1096.6
2023-01-06T10:32:12.878Z,1480.3
2023-01-06T10:34:07.751Z,2100.6
2023-01-06T10:36:07.355Z,1719.9
2023-01-06T10:38:08.018Z,1408.1
2023-01-06T10:40:07.214Z,1274.1
2023-01-06T10:42:08.212Z,1274.1
2023-01-06T10:44:14.159Z,1274.1
2023-01-06T10:46:14.959Z,1043.1
2023-01-06T10:48:07.707Z,1339.4
2023-01-06T10:50:11.835Z,1408.1
2023-01-06T10:52:07.811Z,1808
2023-01-06T10:54:07.405Z,1556.2
2023-01-06T10:56:10.195Z,1636
2023-01-06T10:58:12.331Z,1900.7
2023-01-06T11:00:07.341Z,2100.6
2023-01-06T11:02:08.132Z,2208.3
2023-01-06T11:04:09.135Z,2440.6
2023-01-06T11:06:10.223Z,2321.6
2023-01-06T11:08:07.429Z,2440.6
2023-01-06T11:10:09.526Z,1636
2023-01-06T11:12:08.125Z,2208.3
2023-01-06T11:14:07.309Z,1408.1
2023-01-06T11:16:07.832Z,2100.6
2023-01-06T11:18:08.203Z,2565.7
2023-01-06T11:20:14.612Z,2835.6
2023-01-06T11:22:09.586Z,2981
2023-01-06T11:24:08.257Z,2697.3
2023-01-06T11:26:11.764Z,3133.8
2023-01-06T11:28:07.463Z,4023.9
2023-01-06T11:30:07.739Z,4023.9
2023-01-06T11:32:07.493Z,5166.8
2023-01-06T11:34:09.195Z,4914.8
2023-01-06T11:36:08.625Z,5710.1
2023-01-06T11:38:11.183Z,8955.3
2023-01-06T11:40:11.934Z,6974.4
2023-01-06T11:42:07.392Z,7332
2023-01-06T11:44:07.899Z,6002.9
2023-01-06T11:46:15.022Z,6634.2
2023-01-06T11:48:07.363Z,8955.3
2023-01-06T11:50:12.087Z,4023.9
2023-01-06T11:52:07.771Z,4914.8
2023-01-06T11:54:08.385Z,6002.9
2023-01-06T11:56:07.383Z,2440.6
2023-01-06T11:58:10.106Z,14764.8
2023-01-06T12:00:07.955Z,10938
2023-01-06T12:02:11.532Z,8103.1
2023-01-06T12:04:09.171Z,8103.1
2023-01-06T12:06:08.128Z,10404.6
2023-01-06T12:08:10.489Z,8955.3
2023-01-06T12:10:07.347Z,18033.7
2023-01-06T12:12:07.797Z,12708.2
2023-01-06T12:14:19.517Z,11498.8
2023-01-06T12:16:08.048Z,24343
2023-01-06T12:18:09.490Z,5431.7
2023-01-06T12:20:13.267Z,3463.4
2023-01-06T12:22:07.355Z,2565.7
2023-01-06T12:26:11.329Z,2100.6
2023-01-06T12:28:08.110Z,2100.6
2023-01-06T12:30:10.957Z,2208.3
2023-01-06T12:32:14.042Z,2981
2023-01-06T12:34:07.924Z,2440.6
2023-01-06T12:36:07.850Z,1998.2
2023-01-06T12:38:07.988Z,1636
2023-01-06T12:40:07.914Z,1636
2023-01-06T12:42:08.041Z,1636
2023-01-06T12:44:07.716Z,1556.2
2023-01-06T12:46:15.100Z,1339.4
2023-01-06T12:48:11.881Z,1408.1
2023-01-06T12:50:07.949Z,1556.2
2023-01-06T12:52:07.370Z,1556.2
2023-01-06T12:54:14.906Z,1900.7
2023-01-06T12:56:11.541Z,1636
2023-01-06T12:58:07.213Z,1480.3
2023-01-06T13:00:07.179Z,1212
2023-01-06T13:02:08.037Z,1043.1
2023-01-06T13:04:07.892Z,1096.6
2023-01-06T13:06:09.563Z,1339.4
2023-01-06T13:08:08.141Z,1274.1
2023-01-06T13:10:11.419Z,1274.1
2023-01-06T13:12:07.915Z,1096.6
2023-01-06T13:14:07.214Z,1043.1
2023-01-06T13:16:07.677Z,992.3
2023-01-06T13:18:09.081Z,1043.1
2023-01-06T13:20:07.461Z,1096.6
2023-01-06T13:22:11.776Z,1096.6
2023-01-06T13:24:07.337Z,1043.1
2023-01-06T13:26:14.899Z,1043.1
2023-01-06T13:28:08.047Z,1043.1
2023-01-06T13:30:12.006Z,943.9
2023-01-06T13:32:11.976Z,1096.6
2023-01-06T13:34:07.831Z,1043.1
2023-01-06T13:36:08.070Z,992.3
2023-01-06T13:38:06.971Z,992.3
2023-01-06T13:40:09.141Z,1043.1
2023-01-06T13:42:07.361Z,1096.6
2023-01-06T13:44:08.175Z,1212
2023-01-06T13:46:07.977Z,1152.9
2023-01-06T13:48:07.865Z,1152.9
2023-01-06T13:50:08.694Z,1096.6
2023-01-06T13:52:07.762Z,897.8
2023-01-06T13:54:08.039Z,854.1
2023-01-06T13:56:08.045Z,812.4
2023-01-06T13:58:08.033Z,632.7
2023-01-06T14:00:16.952Z,601.8
2023-01-06T14:02:07.927Z,601.8
2023-01-06T14:04:13.454Z,544.6
2023-01-06T14:06:14.917Z,468.7
2023-01-06T14:10:11.247Z,468.7
2023-01-06T14:12:09.077Z,468.7
2023-01-06T14:14:07.996Z,403.4
2023-01-06T14:16:13.720Z,424.1
2023-01-06T14:18:07.731Z,445.9
2023-01-06T14:21:28.523Z,468.7
2023-01-06T14:23:31.237Z,518
2023-01-06T14:25:27.232Z,572.5
2023-01-06T14:27:27.863Z,572.5
2023-01-06T14:29:27.265Z,572.5
2023-01-06T14:31:27.951Z,572.5
2023-01-06T14:33:30.723Z,544.6
2023-01-06T14:35:28.086Z,492.7
2023-01-06T14:37:27.926Z,424.1
2023-01-06T14:39:27.731Z,383.8
2023-01-06T14:41:27.847Z,383.8
2023-01-06T14:43:27.846Z,403.4
2023-01-06T14:45:29.316Z,383.8
2023-01-06T14:47:27.765Z,383.8
2023-01-06T14:49:31.286Z,383.8
2023-01-06T14:51:31.052Z,365
2023-01-06T14:55:31.333Z,330.3
2023-01-06T14:57:27.699Z,314.2
2023-01-06T14:59:27.781Z,284.3
2023-01-06T15:01:31.110Z,270.4
2023-01-06T15:03:27.771Z,244.7
2023-01-06T15:05:31.111Z,221.4
2023-01-06T15:07:28.119Z,200.3
2023-01-06T15:09:31.230Z,172.4
2023-01-06T15:11:26.471Z,148.4
2023-01-06T15:13:32.333Z,127.7
2023-01-06T15:15:27.795Z,115.6
2023-01-06T15:17:31.153Z,104.6
2023-01-06T15:19:27.843Z,90
2023-01-06T15:21:28.010Z,85.6
2023-01-06T15:23:27.726Z,73.7
2023-01-06T15:25:31.161Z,63.4
2023-01-06T15:27:28.027Z,51.9
2023-01-06T15:31:27.740Z,38.5
2023-01-06T15:33:27.992Z,33.1
2023-01-06T15:35:30.553Z,27.1
2023-01-06T15:37:27.378Z,24.5
2023-01-06T15:39:31.379Z,21.1
2023-01-06T15:41:27.377Z,19.1
2023-01-06T15:43:27.853Z,17.3
2023-01-06T15:45:29.468Z,13.5
2023-01-06T15:47:27.846Z,11
2023-01-06T15:49:27.729Z,8.6
2023-01-06T15:51:30.997Z,6.4
2023-01-06T15:53:34.319Z,4.5
2023-01-06T15:55:27.726Z,3
2023-01-06T15:57:27.408Z,1.9
2023-01-06T15:59:31.235Z,1.3
2023-01-06T16:01:27.874Z,1
2023-01-06T16:03:31.505Z,0.7
2023-01-06T16:05:27.756Z,0.5
2023-01-06T16:07:31.251Z,0.4
2023-01-06T16:09:27.933Z,0.3
2023-01-06T16:11:27.728Z,0.2
2023-01-06T16:13:29.150Z,0.2
2023-01-06T16:15:27.787Z,0.1
2023-01-06T16:17:32.349Z,0.1
2023-01-06T16:19:27.306Z,0
2023-01-06T16:21:28.154Z,0
2023-01-06T16:23:31.187Z,0
2023-01-06T16:25:31.246Z,0
2023-01-06T16:27:27.872Z,0
2023-01-06T16:29:31.196Z,0
2023-01-06T16:31:27.991Z,1
2023-01-06T16:33:27.957Z,1
2023-01-06T16:35:29.423Z,1
2023-01-06T16:37:27.325Z,1
2023-01-06T16:39:31.080Z,1
2023-01-06T16:41:27.666Z,1
2023-01-06T16:43:33.131Z,1
2023-01-06T16:45:28.135Z,1
2023-01-06T16:47:30.863Z,1
2023-01-06T16:49:31.414Z,1
2023-01-06T16:51:31.224Z,1
2023-01-06T16:53:34.167Z,1
2023-01-06T16:55:31.074Z,1
2023-01-06T16:57:27.787Z,1
2023-01-06T16:59:28.158Z,1
2023-01-06T17:01:34.237Z,1
2023-01-06T17:03:28.045Z,1
2023-01-06T17:05:30.906Z,1
2023-01-06T17:07:28.166Z,1
2023-01-06T17:09:27.899Z,1
2023-01-06T17:11:32.165Z,1
2023-01-06T17:13:27.980Z,1
2023-01-06T17:15:28.198Z,1
2023-01-06T17:17:27.895Z,1
2023-01-06T17:19:34.493Z,1
2023-01-06T17:21:27.747Z,1
2023-01-06T17:23:27.677Z,1
2023-01-06T17:25:27.945Z,1
2023-01-06T17:27:31.308Z,1
2023-01-06T17:29:27.777Z,1
2023-01-06T17:31:29.591Z,1
2023-01-06T17:33:31.264Z,1
2023-01-06T17:35:28.165Z,1
2023-01-06T17:37:31.259Z,1
2023-01-06T17:39:27.751Z,1
2023-01-06T17:41:31.522Z,1
2023-01-06T17:43:31.343Z,1
2023-01-06T17:45:27.909Z,1
2023-01-06T17:47:27.717Z,1
2023-01-06T17:49:31.410Z,1
2023-01-06T17:51:28.058Z,1
2023-01-06T17:53:27.715Z,1
2023-01-06T17:55:31.295Z,1
2023-01-06T17:57:28.247Z,1
2023-01-06T17:59:33.164Z,1
2023-01-06T18:01:28.167Z,1
2023-01-06T18:03:27.762Z,1
2023-01-06T18:05:29.436Z,1
2023-01-06T18:07:28.024Z,1
2023-01-06T18:09:29.510Z,1
2023-01-06T18:11:27.869Z,1
2023-01-06T18:13:27.818Z,1
2023-01-06T18:15:31.336Z,1
2023-01-06T18:17:28.330Z,1
2023-01-06T18:19:31.339Z,1
2023-01-06T18:21:27.786Z,1
2023-01-06T18:23:27.903Z,1
2023-01-06T18:25:31.323Z,1
2023-01-06T18:27:27.795Z,1
2023-01-06T18:29:27.982Z,1
2023-01-06T18:31:27.949Z,1
2023-01-06T18:33:27.760Z,1
2023-01-06T18:35:31.316Z,1
2023-01-06T18:37:31.296Z,1
2023-01-06T18:39:28.059Z,1
2023-01-06T18:41:27.690Z,1
2023-01-06T18:43:28.098Z,1
2023-01-06T18:45:28.268Z,1
2023-01-06T18:47:27.719Z,1
2023-01-06T18:49:27.817Z,1
2023-01-06T18:51:31.348Z,1
2023-01-06T18:53:28.205Z,1
2023-01-06T18:55:27.704Z,1
2023-01-06T18:57:34.195Z,1
2023-01-06T18:59:31.218Z,1
2023-01-06T19:01:34.491Z,1
2023-01-06T19:03:27.854Z,1
2023-01-06T19:05:27.947Z,1
2023-01-06T19:07:35.787Z,1
2023-01-06T19:09:27.814Z,1
2023-01-06T19:11:39.216Z,1
2023-01-06T19:13:27.793Z,1
2023-01-06T19:15:27.753Z,1
2023-01-06T19:19:27.747Z,1
2023-01-06T19:21:27.852Z,1
2023-01-06T19:23:27.974Z,1
2023-01-06T19:25:27.782Z,1
2023-01-06T19:27:34.526Z,1
2023-01-06T19:29:27.707Z,1
2023-01-06T19:31:27.822Z,1
2023-01-06T19:33:28.237Z,1
2023-01-06T19:35:28.060Z,1
2023-01-06T19:37:31.245Z,1
2023-01-06T19:39:31.394Z,1
2023-01-06T19:41:27.739Z,1
2023-01-06T19:43:27.784Z,1
2023-01-06T19:45:33.059Z,1
2023-01-06T19:47:27.780Z,1
2023-01-06T19:49:27.861Z,1
2023-01-06T19:51:35.801Z,1
2023-01-06T19:53:31.090Z,1
2023-01-06T19:55:27.437Z,1
2023-01-06T19:57:28.106Z,1
2023-01-06T19:59:32.244Z,1
2023-01-06T20:01:27.973Z,1
2023-01-06T20:03:33.670Z,1
2023-01-06T20:05:27.874Z,1
2023-01-06T20:07:34.435Z,1
2023-01-06T20:09:33.312Z,1
2023-01-06T20:11:27.773Z,1
2023-01-06T20:13:27.733Z,1
2023-01-06T20:15:27.865Z,1
2023-01-06T20:17:27.958Z,1
2023-01-06T20:19:27.976Z,1
2023-01-06T20:21:27.955Z,1
2023-01-06T20:23:29.401Z,1
2023-01-06T20:25:27.783Z,1
2023-01-06T20:27:26.715Z,1
2023-01-06T20:29:27.721Z,1
2023-01-06T20:31:27.767Z,1
2023-01-06T20:33:28.084Z,1
2023-01-06T20:35:31.309Z,1
2023-01-06T20:37:27.983Z,1
2023-01-06T20:41:27.741Z,1
2023-01-06T20:43:28.013Z,1
2023-01-06T20:45:27.815Z,1
2023-01-06T20:47:27.799Z,1
2023-01-06T20:49:27.830Z,1
2023-01-06T20:51:34.477Z,1
2023-01-06T20:53:27.867Z,1
2023-01-06T20:55:27.823Z,1
2023-01-06T20:57:27.768Z,1
2023-01-06T20:59:31.017Z,1
2023-01-06T21:01:28.229Z,1
2023-01-06T21:03:27.642Z,1
2023-01-06T21:05:27.907Z,1
2023-01-06T21:07:27.737Z,1
2023-01-06T21:09:31.394Z,1
2023-01-06T21:11:34.303Z,1
2023-01-06T21:13:30.667Z,1
2023-01-06T21:15:27.794Z,1
2023-01-06T21:17:31.304Z,1
2023-01-06T21:19:27.769Z,1
2023-01-06T21:21:28.118Z,1
2023-01-06T21:23:27.636Z,1
2023-01-06T21:25:27.697Z,1
2023-01-06T21:27:32.274Z,1
2023-01-06T21:31:27.714Z,1
2023-01-06T21:33:30.629Z,1
2023-01-06T21:35:27.968Z,1
2023-01-06T21:37:29.420Z,1
2023-01-06T21:39:27.845Z,1
2023-01-06T21:41:27.369Z,1
2023-01-06T21:43:31.520Z,1
2023-01-06T21:45:27.860Z,1
2023-01-06T21:47:28.135Z,1
2023-01-06T21:49:27.869Z,1
2023-01-06T21:51:28.023Z,1
2023-01-06T21:55:27.740Z,1
2023-01-06T21:57:27.830Z,1
2023-01-06T21:59:29.546Z,1
2023-01-06T22:01:27.802Z,1
2023-01-06T22:03:31.189Z,1
2023-01-06T22:05:29.045Z,1
2023-01-06T22:09:27.827Z,1
2023-01-06T22:11:32.751Z,1
2023-01-06T22:13:31.512Z,1
2023-01-06T22:15:28.022Z,1
2023-01-06T22:17:31.172Z,1
2023-01-06T22:19:28.060Z,1
2023-01-06T22:21:27.915Z,1
2023-01-06T22:23:34.394Z,1
2023-01-06T22:25:31.344Z,1
2023-01-06T22:27:31.297Z,1
2023-01-06T22:29:27.936Z,1
2023-01-06T22:33:28.121Z,1
2023-01-06T22:35:27.790Z,1
2023-01-06T22:37:31.254Z,1
2023-01-06T22:39:27.988Z,1
2023-01-06T22:41:32.282Z,1
2023-01-06T22:43:27.971Z,1
2023-01-06T22:45:31.355Z,1
2023-01-06T22:47:28.259Z,1
2023-01-06T22:49:29.004Z,1
2023-01-06T22:51:28.071Z,1
2023-01-06T22:53:31.295Z,1
2023-01-06T22:55:31.302Z,1
2023-01-06T22:57:34.547Z,1
2023-01-06T22:59:27.916Z,1
2023-01-06T23:01:27.774Z,1
2023-01-06T23:03:27.517Z,1
2023-01-06T23:05:28.232Z,1
2023-01-06T23:07:33.315Z,1
2023-01-06T23:09:27.006Z,1
2023-01-06T23:11:26.753Z,1
2023-01-06T23:13:27.836Z,1
2023-01-06T23:15:29.164Z,1
2023-01-06T23:17:27.359Z,1
2023-01-06T23:19:27.831Z,1
2023-01-06T23:21:32.832Z,1
2023-01-06T23:23:28.019Z,1
2023-01-06T23:25:34.509Z,1
2023-01-06T23:27:34.248Z,1
2023-01-06T23:29:27.864Z,1
2023-01-06T23:31:27.915Z,1
2023-01-06T23:33:28.019Z,1
2023-01-06T23:35:27.748Z,1
2023-01-06T23:37:29.515Z,1
2023-01-06T23:39:28.125Z,1
2023-01-06T23:41:34.526Z,1
2023-01-06T23:43:31.424Z,1
2023-01-06T23:45:28.022Z,1
2023-01-06T23:47:34.471Z,1
2023-01-06T23:49:27.988Z,1
2023-01-06T23:51:28.011Z,1
2023-01-06T23:53:31.375Z,1
2023-01-06T23:55:31.286Z,1
2023-01-06T23:57:31.389Z,1
2023-01-06T23:59:31.423Z,1
